YMAV/AVV METAR and TAF weather

Enter ICAO airport designator
Station Type Date Time Source
YMAV METAR 2019/10/23 02:00 UTC NOAA

YMAV 230200Z AUTO 12007KT 9999 // NCD 22/10 Q1019


Station Type Date Time Source
YMAV Decoded METAR 2019/10/23 02:00 UTC NOAA

Avalon, Avalon Airport, Australia (YMAV) 38-02S 144-29E
Oct 22, 2019 - 10:00 PM EDT / 2019.10.23 0200 UTC
Wind: from the ESE (120 degrees) at 8 MPH (7 KT):0
Visibility: greater than 7 mile(s):0
Temperature: 71 F (22 C)
Dew Point: 50 F (10 C)
Relative Humidity: 46%
Pressure (altimeter): 30.09 in. Hg (1019 hPa)
ob: YMAV 230200Z AUTO 12007KT 9999 // NCD 22/10 Q1019
cycle: 2

Station Type Date Time Source
YMAV TAF 2019/10/22 18:33 UTC NOAA

TAF YMAV 221710Z 2218/2318 VRB05KT CAVOK
FM230400 13008KT CAVOK
FM231000 VRB05KT CAVOK PROB30 2218/2222 0500 FG BKN002

Example: see airport list